Time;durP1;ratioP1;P1;durP2;ratioP2;P2;SDS_P1;SDS_P2;PMS_P1;PMS_P2;Temp;Humidity;BMP_temperature;BMP_pressure;BME280_temperature;BME280_humidity;BME280_pressure;Samples;Min_cycle;Max_cycle;Signal;HPM_P1;HPM_P2
2023/05/22 00:00:08;;;;;;;;;;;19.50;77.20;;;;;;5093765;28;19908;-38
2023/05/22 00:02:37;;;;;;;;;;;19.50;77.40;;;;;;5075451;28;20395;-35
2023/05/22 00:05:06;;;;;;;;;;;19.40;77.20;;;;;;5093693;28;20045;-35
2023/05/22 00:07:31;;;;;;;;;;;19.40;77.10;;;;;;5093548;28;20002;-36
2023/05/22 00:09:57;;;;;;;;;;;19.50;77.10;;;;;;5093626;28;19999;-35
2023/05/22 00:12:22;;;;;;;;;;;19.40;77.10;;;;;;5093442;28;19914;-31
2023/05/22 00:14:48;;;;;;;;;;;19.50;77.10;;;;;;5093487;28;19969;-37
2023/05/22 00:17:13;;;;;;;;;;;19.50;77.20;;;;;;5093554;28;19908;-36
2023/05/22 00:19:39;;;;;;;;;;;19.40;77.10;;;;;;5093490;28;19916;-35
2023/05/22 00:22:05;;;;;;;;;;;19.40;77.20;;;;;;5093257;28;20007;-34
2023/05/22 00:24:30;;;;;;;;;;;19.40;77.30;;;;;;5093310;28;19970;-39
2023/05/22 00:26:56;;;;;;;;;;;19.30;77.30;;;;;;5093350;28;19961;-39
2023/05/22 00:29:22;;;;;;;;;;;19.30;77.40;;;;;;5093326;28;19959;-35
2023/05/22 00:31:47;;;;;;;;;;;19.30;77.60;;;;;;5093261;28;20189;-37
2023/05/22 00:34:13;;;;;;;;;;;19.20;77.40;;;;;;5075381;28;19915;-35
2023/05/22 00:36:38;;;;;;;;;;;19.10;77.50;;;;;;5093327;28;20129;-35
2023/05/22 00:39:04;;;;;;;;;;;19.10;77.60;;;;;;5092975;28;19915;-33
2023/05/22 00:41:32;;;;;;;;;;;19.10;77.50;;;;;;5093210;28;19938;-33
2023/05/22 00:43:58;;;;;;;;;;;19.00;77.40;;;;;;5092914;28;20387;-36
2023/05/22 00:46:24;;;;;;;;;;;19.00;77.60;;;;;;5093038;28;19912;-38
2023/05/22 00:48:51;;;;;;;;;;;18.90;78.10;;;;;;5092906;28;20315;-31
2023/05/22 00:51:17;;;;;;;;;;;18.80;78.50;;;;;;5093076;28;20010;-38
2023/05/22 00:53:43;;;;;;;;;;;18.60;79.00;;;;;;5093266;28;20015;-36
2023/05/22 00:56:09;;;;;;;;;;;18.50;79.40;;;;;;5092704;28;19909;-33
2023/05/22 00:58:35;;;;;;;;;;;18.40;79.90;;;;;;5093027;28;20003;-33
2023/05/22 01:01:01;;;;;;;;;;;18.30;80.00;;;;;;5091794;28;20388;-33
2023/05/22 01:03:27;;;;;;;;;;;18.30;80.40;;;;;;5092748;28;19912;-37
2023/05/22 01:05:52;;;;;;;;;;;18.20;80.40;;;;;;5092643;28;19908;-36
2023/05/22 01:08:18;;;;;;;;;;;18.10;80.50;;;;;;5092572;28;19934;-35
2023/05/22 01:10:44;;;;;;;;;;;18.10;80.50;;;;;;5074462;28;20456;-34
2023/05/22 01:13:17;;;;;;;;;;;18.10;80.40;;;;;;5092391;28;19919;-32
2023/05/22 01:15:48;;;;;;;;;;;18.10;80.60;;;;;;5092549;28;20010;-39
2023/05/22 01:18:18;;;;;;;;;;;18.10;80.30;;;;;;5092406;28;19908;-32
2023/05/22 01:20:53;;;;;;;;;;;18.10;80.40;;;;;;5092290;28;19912;-36
2023/05/22 01:23:22;;;;;;;;;;;18.10;80.20;;;;;;5092367;28;19920;-35
2023/05/22 01:25:53;;;;;;;;;;;18.10;80.20;;;;;;5092380;28;20356;-31
2023/05/22 01:28:25;;;;;;;;;;;18.10;80.10;;;;;;5092390;28;20449;-33
2023/05/22 01:30:53;;;;;;;;;;;18.10;80.00;;;;;;5092156;28;20279;-35
2023/05/22 01:33:20;;;;;;;;;;;18.10;80.00;;;;;;5092267;28;19908;-39
2023/05/22 01:35:47;;;;;;;;;;;18.20;79.90;;;;;;5092304;28;19908;-38
2023/05/22 01:38:14;;;;;;;;;;;18.20;79.90;;;;;;5092254;28;19968;-35
2023/05/22 01:40:39;;;;;;;;;;;18.20;79.80;;;;;;5074059;28;20339;-38
2023/05/22 01:43:05;;;;;;;;;;;18.30;79.90;;;;;;5092064;28;20061;-37
2023/05/22 01:45:30;;;;;;;;;;;18.30;79.70;;;;;;5092180;28;19914;-34
2023/05/22 01:47:56;;;;;;;;;;;18.30;79.60;;;;;;5092262;28;19908;-36
2023/05/22 01:50:22;;;;;;;;;;;18.40;79.60;;;;;;5092026;28;19908;-34
2023/05/22 01:52:53;;;;;;;;;;;18.40;79.50;;;;;;5092137;28;19966;-31
2023/05/22 01:55:26;;;;;;;;;;;18.40;79.40;;;;;;5092142;28;20097;-33
2023/05/22 01:57:55;;;;;;;;;;;18.40;79.40;;;;;;5091982;28;20003;-37
2023/05/22 02:00:23;;;;;;;;;;;18.30;79.70;;;;;;5092189;28;19909;-35
2023/05/22 02:02:52;;;;;;;;;;;18.30;79.70;;;;;;5092030;28;19912;-38
2023/05/22 02:05:18;;;;;;;;;;;18.20;79.70;;;;;;5092023;28;20636;-31
2023/05/22 02:07:44;;;;;;;;;;;18.20;79.90;;;;;;5091951;28;19915;-34
2023/05/22 02:10:10;;;;;;;;;;;18.10;79.80;;;;;;5091731;28;20383;-34
2023/05/22 02:12:36;;;;;;;;;;;18.10;79.80;;;;;;5094699;28;19961;-36
2023/05/22 02:15:02;;;;;;;;;;;18.10;79.70;;;;;;5095976;28;19908;-35
2023/05/22 02:17:27;;;;;;;;;;;18.10;79.70;;;;;;5095894;28;20015;-33
2023/05/22 02:19:53;;;;;;;;;;;18.00;79.70;;;;;;5095679;28;19969;-37
2023/05/22 02:22:18;;;;;;;;;;;18.10;79.70;;;;;;5095653;28;19916;-32
2023/05/22 02:24:47;;;;;;;;;;;18.10;79.70;;;;;;5095699;28;19919;-30
2023/05/22 02:27:12;;;;;;;;;;;18.00;79.60;;;;;;5095533;28;20429;-38
2023/05/22 02:29:38;;;;;;;;;;;18.00;79.70;;;;;;5095754;28;19913;-33
2023/05/22 02:32:04;;;;;;;;;;;18.00;79.70;;;;;;5095454;28;19913;-32
2023/05/22 02:34:30;;;;;;;;;;;17.90;79.80;;;;;;5095583;28;19959;-31
2023/05/22 02:36:58;;;;;;;;;;;17.80;79.90;;;;;;5095359;28;20386;-35
2023/05/22 02:39:24;;;;;;;;;;;17.80;80.00;;;;;;5095807;28;19923;-38
2023/05/22 02:41:50;;;;;;;;;;;17.80;80.00;;;;;;5077160;28;19916;-34
2023/05/22 02:44:15;;;;;;;;;;;17.80;80.00;;;;;;5095165;28;19962;-31
2023/05/22 02:46:41;;;;;;;;;;;17.70;80.10;;;;;;5095296;28;19912;-36
2023/05/22 02:49:06;;;;;;;;;;;17.70;80.10;;;;;;5095419;28;19930;-30
2023/05/22 02:51:32;;;;;;;;;;;17.70;80.80;;;;;;5095133;28;19912;-33
2023/05/22 02:53:57;;;;;;;;;;;17.70;80.20;;;;;;5095150;28;19912;-33
2023/05/22 02:56:23;;;;;;;;;;;17.60;80.10;;;;;;5095046;28;20007;-34
2023/05/22 02:58:49;;;;;;;;;;;17.70;80.10;;;;;;5095058;28;20041;-34
2023/05/22 03:01:14;;;;;;;;;;;17.70;80.10;;;;;;5094849;28;20002;-32
2023/05/22 03:03:40;;;;;;;;;;;17.70;80.00;;;;;;5094904;28;19920;-33
2023/05/22 03:06:07;;;;;;;;;;;17.70;80.00;;;;;;5094915;28;19912;-35
2023/05/22 03:08:36;;;;;;;;;;;17.80;80.00;;;;;;5094990;28;19912;-31
2023/05/22 03:11:02;;;;;;;;;;;17.80;79.90;;;;;;5094730;28;19916;-33
2023/05/22 03:13:28;;;;;;;;;;;17.80;79.90;;;;;;5094692;28;20376;-35
2023/05/22 03:15:53;;;;;;;;;;;17.80;79.90;;;;;;5094563;28;19991;-32
2023/05/22 03:18:20;;;;;;;;;;;17.80;79.90;;;;;;5094567;28;19920;-36
2023/05/22 03:20:46;;;;;;;;;;;17.90;79.90;;;;;;5094492;28;19918;-35
2023/05/22 03:23:12;;;;;;;;;;;17.80;79.80;;;;;;5093439;28;20334;-35
2023/05/22 03:25:37;;;;;;;;;;;17.80;79.80;;;;;;5094904;28;19920;-35
2023/05/22 03:28:03;;;;;;;;;;;17.80;79.90;;;;;;5094262;28;20368;-32
2023/05/22 03:30:28;;;;;;;;;;;17.80;80.00;;;;;;5094412;28;20372;-37
2023/05/22 03:32:54;;;;;;;;;;;17.70;79.90;;;;;;5094457;28;19919;-31
2023/05/22 03:35:19;;;;;;;;;;;17.70;80.00;;;;;;5094214;28;19912;-34
2023/05/22 03:37:45;;;;;;;;;;;17.70;80.00;;;;;;5094185;28;19912;-37
2023/05/22 03:40:11;;;;;;;;;;;17.60;80.00;;;;;;5094164;28;20023;-35
2023/05/22 03:42:37;;;;;;;;;;;17.60;80.00;;;;;;5094058;28;19912;-29
2023/05/22 03:45:02;;;;;;;;;;;17.60;80.00;;;;;;5093988;28;19912;-30
2023/05/22 03:47:28;;;;;;;;;;;17.60;80.10;;;;;;5094314;28;19912;-32
2023/05/22 03:49:53;;;;;;;;;;;17.50;80.10;;;;;;5093938;28;20431;-37
2023/05/22 03:52:19;;;;;;;;;;;17.50;80.20;;;;;;5093879;28;19919;-33
2023/05/22 03:54:44;;;;;;;;;;;17.50;80.20;;;;;;5093808;28;19951;-34
2023/05/22 03:57:10;;;;;;;;;;;17.50;80.20;;;;;;5093748;28;19934;-30
2023/05/22 03:59:35;;;;;;;;;;;17.50;80.20;;;;;;5075636;28;19912;-29
2023/05/22 04:02:01;;;;;;;;;;;17.50;80.20;;;;;;5093741;28;19962;-32
2023/05/22 04:04:27;;;;;;;;;;;17.50;80.20;;;;;;5093654;28;19916;-37
2023/05/22 04:06:52;;;;;;;;;;;17.40;80.20;;;;;;5093644;28;19911;-37
2023/05/22 04:09:18;;;;;;;;;;;17.40;80.30;;;;;;5093459;28;19920;-32
2023/05/22 04:11:45;;;;;;;;;;;17.40;80.30;;;;;;5093542;28;19965;-33
2023/05/22 04:14:10;;;;;;;;;;;17.40;80.30;;;;;;5093458;28;19912;-33
2023/05/22 04:16:36;;;;;;;;;;;17.30;80.30;;;;;;5093545;28;20299;-30
2023/05/22 04:19:02;;;;;;;;;;;17.40;80.30;;;;;;5093295;28;20283;-34
2023/05/22 04:21:28;;;;;;;;;;;17.40;80.30;;;;;;5093330;28;19912;-36
2023/05/22 04:23:53;;;;;;;;;;;17.40;80.30;;;;;;5093381;28;19988;-35
2023/05/22 04:26:19;;;;;;;;;;;17.30;80.30;;;;;;5093274;28;20005;-34
2023/05/22 04:28:46;;;;;;;;;;;17.30;80.30;;;;;;5093565;28;19993;-36
2023/05/22 04:31:11;;;;;;;;;;;17.30;80.40;;;;;;5093058;28;19912;-34
2023/05/22 04:33:37;;;;;;;;;;;17.30;80.50;;;;;;5093235;28;19912;-33
2023/05/22 04:36:03;;;;;;;;;;;17.20;81.20;;;;;;5093008;28;20379;-35
2023/05/22 04:38:29;;;;;;;;;;;17.20;80.60;;;;;;5093249;28;20395;-37
2023/05/22 04:40:55;;;;;;;;;;;17.20;80.60;;;;;;5093004;28;19924;-35
2023/05/22 04:43:25;;;;;;;;;;;17.20;80.60;;;;;;5092978;28;20294;-36
2023/05/22 04:45:50;;;;;;;;;;;17.20;80.50;;;;;;5092931;28;19990;-32
2023/05/22 04:48:16;;;;;;;;;;;17.20;80.40;;;;;;5092674;28;20015;-30
2023/05/22 04:50:45;;;;;;;;;;;17.30;80.50;;;;;;5092916;28;19913;-32
2023/05/22 04:53:11;;;;;;;;;;;17.30;80.50;;;;;;5092598;28;19966;-30
2023/05/22 04:55:37;;;;;;;;;;;17.30;81.00;;;;;;5092795;28;19919;-30
2023/05/22 04:58:02;;;;;;;;;;;17.40;80.40;;;;;;5092687;28;19912;-33
2023/05/22 05:00:28;;;;;;;;;;;17.40;80.30;;;;;;5092632;28;19946;-30
2023/05/22 05:02:53;;;;;;;;;;;17.40;80.20;;;;;;5092575;28;19920;-32
2023/05/22 05:05:19;;;;;;;;;;;17.50;80.20;;;;;;5092647;28;20380;-30
2023/05/22 05:07:46;;;;;;;;;;;17.50;80.10;;;;;;5092760;28;19912;-36
2023/05/22 05:10:11;;;;;;;;;;;17.50;80.10;;;;;;5092610;28;19918;-33
2023/05/22 05:12:37;;;;;;;;;;;17.60;80.10;;;;;;5092521;28;20011;-38
2023/05/22 05:15:02;;;;;;;;;;;17.60;80.00;;;;;;5092406;28;19948;-34
2023/05/22 05:17:28;;;;;;;;;;;17.70;80.00;;;;;;5092497;28;19912;-30
2023/05/22 05:19:53;;;;;;;;;;;17.70;80.00;;;;;;5092801;28;19912;-30
2023/05/22 05:22:19;;;;;;;;;;;17.60;80.20;;;;;;5092218;28;19923;-31
2023/05/22 05:24:44;;;;;;;;;;;17.60;80.30;;;;;;5092100;28;20434;-34
2023/05/22 05:27:10;;;;;;;;;;;17.50;80.40;;;;;;5092242;28;19924;-36
2023/05/22 05:29:35;;;;;;;;;;;17.40;80.50;;;;;;5092198;28;20053;-32
2023/05/22 05:32:02;;;;;;;;;;;17.30;80.60;;;;;;5092171;28;19962;-33
2023/05/22 05:34:28;;;;;;;;;;;17.30;80.70;;;;;;5092016;28;19912;-37
2023/05/22 05:36:56;;;;;;;;;;;17.20;80.60;;;;;;5091701;28;19923;-36
2023/05/22 05:39:21;;;;;;;;;;;17.20;80.60;;;;;;5092133;28;19919;-33
2023/05/22 05:41:47;;;;;;;;;;;17.30;80.80;;;;;;5091994;28;19912;-33
2023/05/22 05:44:12;;;;;;;;;;;17.30;80.80;;;;;;5073731;28;19973;-31
2023/05/22 05:46:38;;;;;;;;;;;17.20;80.80;;;;;;5091454;28;19951;-34
2023/05/22 05:49:10;;;;;;;;;;;17.20;80.90;;;;;;5092025;28;19912;-35
2023/05/22 05:51:38;;;;;;;;;;;17.10;80.90;;;;;;5091868;28;19935;-37
2023/05/22 05:54:03;;;;;;;;;;;17.10;81.20;;;;;;5091983;28;20347;-36
2023/05/22 05:56:29;;;;;;;;;;;17.10;81.00;;;;;;5091903;28;19984;-36
2023/05/22 05:58:55;;;;;;;;;;;17.20;81.00;;;;;;5091845;28;19916;-30
2023/05/22 06:01:23;;;;;;;;;;;17.20;81.00;;;;;;5091912;28;20285;-31
2023/05/22 06:03:49;;;;;;;;;;;17.20;81.10;;;;;;5091753;28;20412;-37
2023/05/22 06:06:16;;;;;;;;;;;17.30;81.80;;;;;;5091716;28;19966;-31
2023/05/22 06:08:42;;;;;;;;;;;17.20;81.20;;;;;;5091758;28;20402;-36
2023/05/22 06:11:07;;;;;;;;;;;17.30;81.20;;;;;;5091794;28;19912;-32
2023/05/22 06:13:33;;;;;;;;;;;17.30;81.40;;;;;;5091727;28;19961;-30
2023/05/22 06:15:58;;;;;;;;;;;17.40;81.10;;;;;;5091759;28;19961;-30
2023/05/22 06:18:24;;;;;;;;;;;17.40;81.00;;;;;;5091689;28;19916;-35
2023/05/22 06:20:50;;;;;;;;;;;17.60;80.90;;;;;;5091546;28;19923;-29
2023/05/22 06:23:15;;;;;;;;;;;17.80;80.80;;;;;;5091647;28;19920;-31
2023/05/22 06:25:41;;;;;;;;;;;17.90;80.50;;;;;;5091903;28;19912;-33
2023/05/22 06:28:06;;;;;;;;;;;18.00;80.40;;;;;;5073482;28;19913;-30
2023/05/22 06:30:32;;;;;;;;;;;18.10;80.10;;;;;;5091650;28;20296;-35
2023/05/22 06:32:57;;;;;;;;;;;18.20;80.60;;;;;;5091686;28;19961;-30
2023/05/22 06:35:24;;;;;;;;;;;18.30;80.00;;;;;;5091673;28;19916;-30
2023/05/22 06:37:49;;;;;;;;;;;18.30;79.90;;;;;;5073457;28;19916;-35
2023/05/22 06:40:15;;;;;;;;;;;18.40;80.00;;;;;;5091609;28;19923;-31
2023/05/22 06:42:42;;;;;;;;;;;18.40;80.00;;;;;;5091435;28;19919;-36
2023/05/22 06:45:07;;;;;;;;;;;18.50;80.00;;;;;;5091749;28;19919;-35
2023/05/22 06:47:33;;;;;;;;;;;18.50;79.90;;;;;;5091449;28;20331;-36
2023/05/22 06:49:58;;;;;;;;;;;18.50;80.00;;;;;;5091487;28;19912;-35
2023/05/22 06:52:24;;;;;;;;;;;18.50;79.90;;;;;;5091193;28;20077;-34
2023/05/22 06:54:49;;;;;;;;;;;18.60;79.90;;;;;;5091319;28;19922;-34
2023/05/22 06:57:15;;;;;;;;;;;18.60;80.00;;;;;;5091410;28;19920;-31
2023/05/22 06:59:41;;;;;;;;;;;18.60;79.90;;;;;;5093844;28;19912;-34
2023/05/22 07:02:06;;;;;;;;;;;18.60;80.00;;;;;;5095005;28;19958;-32
2023/05/22 07:04:32;;;;;;;;;;;18.60;80.10;;;;;;5095095;28;20010;-30
2023/05/22 07:06:57;;;;;;;;;;;18.60;80.10;;;;;;5094799;28;19912;-30
2023/05/22 07:09:23;;;;;;;;;;;18.60;80.10;;;;;;5094635;28;19912;-35
2023/05/22 07:11:48;;;;;;;;;;;18.70;80.30;;;;;;5094843;28;19965;-31
2023/05/22 07:14:14;;;;;;;;;;;18.60;80.40;;;;;;5094674;28;19919;-35
2023/05/22 07:16:40;;;;;;;;;;;18.70;80.20;;;;;;5095152;28;20302;-35
2023/05/22 07:19:07;;;;;;;;;;;18.70;80.40;;;;;;5094775;28;19908;-33
2023/05/22 07:21:35;;;;;;;;;;;18.80;80.30;;;;;;5094352;28;20295;-33
2023/05/22 07:24:07;;;;;;;;;;;18.80;80.20;;;;;;5094417;28;19964;-31
2023/05/22 07:26:33;;;;;;;;;;;18.90;80.10;;;;;;5094495;28;20330;-32
2023/05/22 07:28:59;;;;;;;;;;;19.00;80.00;;;;;;5094372;28;19909;-33
2023/05/22 07:31:25;;;;;;;;;;;19.10;79.90;;;;;;5094525;28;20264;-38
2023/05/22 07:33:50;;;;;;;;;;;19.10;79.90;;;;;;5094287;28;19915;-33
2023/05/22 07:36:17;;;;;;;;;;;19.20;79.90;;;;;;5094307;28;19954;-31
2023/05/22 07:38:43;;;;;;;;;;;19.30;79.60;;;;;;5094358;28;19908;-35
2023/05/22 07:41:09;;;;;;;;;;;19.40;79.50;;;;;;5094318;28;20386;-35
2023/05/22 07:43:34;;;;;;;;;;;19.50;79.50;;;;;;5094022;28;19912;-33
2023/05/22 07:46:00;;;;;;;;;;;19.60;79.40;;;;;;5094062;28;20338;-31
2023/05/22 07:48:25;;;;;;;;;;;19.70;79.30;;;;;;5093972;28;19992;-30
2023/05/22 07:50:51;;;;;;;;;;;19.80;79.00;;;;;;5094012;28;20247;-37
2023/05/22 07:53:16;;;;;;;;;;;19.90;79.00;;;;;;5094590;28;19908;-32
2023/05/22 07:55:41;;;;;;;;;;;20.00;78.90;;;;;;5093932;28;19908;-37
2023/05/22 07:58:09;;;;;;;;;;;20.00;78.90;;;;;;5093938;28;19915;-33
2023/05/22 08:00:34;;;;;;;;;;;20.10;78.60;;;;;;5094009;28;20375;-37
2023/05/22 08:02:59;;;;;;;;;;;20.20;78.50;;;;;;5093824;28;19959;-36
2023/05/22 08:05:25;;;;;;;;;;;20.30;78.50;;;;;;5093724;28;19987;-35
2023/05/22 08:07:51;;;;;;;;;;;20.40;78.30;;;;;;5093690;28;19919;-34
2023/05/22 08:10:17;;;;;;;;;;;20.50;78.20;;;;;;5093211;28;20093;-34
2023/05/22 08:12:43;;;;;;;;;;;20.60;78.20;;;;;;5093817;28;20398;-37
2023/05/22 08:15:09;;;;;;;;;;;20.60;77.80;;;;;;5093644;28;19909;-36
2023/05/22 08:17:34;;;;;;;;;;;20.70;77.70;;;;;;5093519;28;19914;-37
2023/05/22 08:20:00;;;;;;;;;;;20.80;77.50;;;;;;5093504;28;20237;-33
2023/05/22 08:22:28;;;;;;;;;;;20.80;77.50;;;;;;5093289;28;19923;-36
2023/05/22 08:24:53;;;;;;;;;;;20.90;77.40;;;;;;5093310;28;19969;-35
2023/05/22 08:27:19;;;;;;;;;;;21.00;77.30;;;;;;5093355;28;19909;-36
2023/05/22 08:29:44;;;;;;;;;;;21.00;77.10;;;;;;5093281;28;20268;-35
2023/05/22 08:32:10;;;;;;;;;;;21.10;77.00;;;;;;5093190;28;20273;-32
2023/05/22 08:34:35;;;;;;;;;;;21.20;76.80;;;;;;5093351;28;19962;-36
2023/05/22 08:37:01;;;;;;;;;;;21.30;76.70;;;;;;5093220;28;19908;-33
2023/05/22 08:39:27;;;;;;;;;;;21.40;76.60;;;;;;5093206;28;19944;-33
2023/05/22 08:41:52;;;;;;;;;;;21.50;76.40;;;;;;5093218;28;20388;-36
2023/05/22 08:44:19;;;;;;;;;;;21.50;76.20;;;;;;5092876;28;19957;-36
2023/05/22 08:46:55;;;;;;;;;;;21.60;76.10;;;;;;5093153;28;20287;-33
2023/05/22 08:49:21;;;;;;;;;;;21.60;76.10;;;;;;5074768;28;20375;-33
2023/05/22 08:51:49;;;;;;;;;;;21.70;76.00;;;;;;5092935;28;19908;-38
2023/05/22 08:54:17;;;;;;;;;;;21.70;75.80;;;;;;5092945;28;20265;-32
2023/05/22 08:56:42;;;;;;;;;;;21.80;75.80;;;;;;5093008;28;19908;-34
2023/05/22 08:59:11;;;;;;;;;;;21.90;75.50;;;;;;5092940;28;19908;-36
2023/05/22 09:01:36;;;;;;;;;;;22.00;75.40;;;;;;5092775;28;19916;-31
2023/05/22 09:04:02;;;;;;;;;;;22.20;75.70;;;;;;5092611;28;20288;-35
2023/05/22 09:06:28;;;;;;;;;;;22.20;74.70;;;;;;5092891;28;20001;-33
2023/05/22 09:08:58;;;;;;;;;;;22.30;74.50;;;;;;5092670;28;20367;-31
2023/05/22 09:11:23;;;;;;;;;;;22.30;74.20;;;;;;5092505;28;20417;-31
2023/05/22 09:13:50;;;;;;;;;;;22.40;74.10;;;;;;5092680;28;19908;-37
2023/05/22 09:16:16;;;;;;;;;;;22.50;73.70;;;;;;5092478;28;19908;-32
2023/05/22 09:18:42;;;;;;;;;;;22.70;73.40;;;;;;5092557;28;20341;-36
2023/05/22 09:21:08;;;;;;;;;;;22.90;73.30;;;;;;5091445;28;20291;-36
2023/05/22 09:23:34;;;;;;;;;;;23.00;72.90;;;;;;5092485;28;19916;-36
2023/05/22 09:26:00;;;;;;;;;;;23.10;72.70;;;;;;5092438;28;19912;-38
2023/05/22 09:28:26;;;;;;;;;;;23.20;71.30;;;;;;5092215;28;20006;-43
2023/05/22 09:30:52;;;;;;;;;;;23.10;71.80;;;;;;5092312;28;19943;-43
2023/05/22 09:33:18;;;;;;;;;;;23.20;71.80;;;;;;5092131;28;20283;-45
2023/05/22 09:35:48;;;;;;;;;;;23.10;71.80;;;;;;5092116;28;20148;-44
2023/05/22 09:38:14;;;;;;;;;;;23.10;71.80;;;;;;5073613;28;20372;-44
2023/05/22 09:40:39;;;;;;;;;;;23.20;71.50;;;;;;5092277;28;20011;-44
2023/05/22 09:43:08;;;;;;;;;;;23.30;71.50;;;;;;5091937;28;19916;-45
2023/05/22 09:45:35;;;;;;;;;;;23.40;71.40;;;;;;5091966;28;20371;-44
2023/05/22 09:48:01;;;;;;;;;;;23.60;71.20;;;;;;5092017;28;19912;-43
2023/05/22 09:50:26;;;;;;;;;;;23.70;70.90;;;;;;5091934;28;20399;-43
2023/05/22 09:52:52;;;;;;;;;;;23.90;70.30;;;;;;5091976;28;19908;-43
2023/05/22 09:55:20;;;;;;;;;;;24.00;69.70;;;;;;5092135;28;19957;-43
2023/05/22 09:57:48;;;;;;;;;;;24.10;69.50;;;;;;5091883;28;19908;-42
2023/05/22 10:00:17;;;;;;;;;;;24.20;68.80;;;;;;5091835;28;20296;-43
2023/05/22 10:02:45;;;;;;;;;;;24.20;68.60;;;;;;5092086;28;19914;-44
2023/05/22 10:05:12;;;;;;;;;;;24.30;68.40;;;;;;5091767;28;19912;-41
2023/05/22 10:07:45;;;;;;;;;;;24.30;67.60;;;;;;5091677;28;20353;-45
2023/05/22 10:10:11;;;;;;;;;;;24.30;67.10;;;;;;5091692;28;19912;-44
2023/05/22 10:12:42;;;;;;;;;;;24.10;67.10;;;;;;5091715;28;19908;-42
2023/05/22 10:15:09;;;;;;;;;;;24.00;67.10;;;;;;5091972;28;20385;-43
2023/05/22 10:17:35;;;;;;;;;;;23.90;67.40;;;;;;5091694;28;19908;-45
2023/05/22 10:20:03;;;;;;;;;;;23.80;67.70;;;;;;5091708;28;20371;-45
2023/05/22 10:22:29;;;;;;;;;;;23.70;67.60;;;;;;5091436;28;19939;-45
2023/05/22 10:24:55;;;;;;;;;;;23.70;68.00;;;;;;5073421;28;19927;-43
2023/05/22 10:27:21;;;;;;;;;;;23.70;67.70;;;;;;5091475;28;19908;-45
2023/05/22 10:29:50;;;;;;;;;;;23.70;67.90;;;;;;5091913;28;20050;-45
2023/05/22 10:32:20;;;;;;;;;;;23.80;67.80;;;;;;5091876;28;20288;-42
2023/05/22 10:34:50;;;;;;;;;;;23.90;67.60;;;;;;5095487;28;20525;-44
2023/05/22 10:37:22;;;;;;;;;;;24.00;67.60;;;;;;5095625;28;20307;-42
2023/05/22 10:40:03;;;;;;;;;;;24.20;67.50;;;;;;5095391;28;19908;-44
2023/05/22 10:42:29;;;;;;;;;;;24.40;67.20;;;;;;5095382;28;20304;-44
2023/05/22 10:44:54;;;;;;;;;;;24.50;67.10;;;;;;5095237;28;19919;-42
2023/05/22 10:47:20;;;;;;;;;;;24.70;66.60;;;;;;5076922;28;19909;-45
2023/05/22 10:49:45;;;;;;;;;;;24.80;66.00;;;;;;5095182;28;19914;-44
2023/05/22 10:52:13;;;;;;;;;;;24.90;66.00;;;;;;5095092;28;20386;-44
2023/05/22 10:54:40;;;;;;;;;;;24.90;65.80;;;;;;5095099;28;19908;-44
2023/05/22 10:57:23;;;;;;;;;;;24.90;65.40;;;;;;5094960;28;19955;-43
2023/05/22 10:59:49;;;;;;;;;;;24.90;64.90;;;;;;5095003;28;19912;-45
2023/05/22 11:02:24;;;;;;;;;;;24.80;65.30;;;;;;5094919;28;19953;-43
2023/05/22 11:04:49;;;;;;;;;;;24.80;65.20;;;;;;5094731;28;19969;-45
2023/05/22 11:07:15;;;;;;;;;;;24.80;65.40;;;;;;5094898;28;19935;-45
2023/05/22 11:09:47;;;;;;;;;;;24.80;65.00;;;;;;5094684;28;19985;-49
2023/05/22 11:12:23;;;;;;;;;;;24.80;65.30;;;;;;5094844;28;19908;-45
2023/05/22 11:14:52;;;;;;;;;;;24.90;65.30;;;;;;5094760;28;20360;-43
2023/05/22 11:17:25;;;;;;;;;;;25.10;65.10;;;;;;5094566;28;19912;-43
2023/05/22 11:20:01;;;;;;;;;;;25.30;64.90;;;;;;5094606;28;20002;-44
2023/05/22 11:22:33;;;;;;;;;;;25.40;64.70;;;;;;5094434;28;20015;-41
2023/05/22 11:24:59;;;;;;;;;;;25.60;64.50;;;;;;5094582;28;20006;-45
2023/05/22 11:27:25;;;;;;;;;;;25.80;64.40;;;;;;5094850;28;20350;-43
2023/05/22 11:29:51;;;;;;;;;;;25.90;64.30;;;;;;5094452;28;19964;-44
2023/05/22 11:32:19;;;;;;;;;;;26.10;63.90;;;;;;5094547;28;19908;-42
2023/05/22 11:34:45;;;;;;;;;;;26.10;63.80;;;;;;5094451;28;19916;-45
2023/05/22 11:37:11;;;;;;;;;;;26.10;63.70;;;;;;5094358;28;19908;-44
2023/05/22 11:39:36;;;;;;;;;;;26.10;63.80;;;;;;5094404;28;19908;-43
2023/05/22 11:42:03;;;;;;;;;;;26.00;63.50;;;;;;5094229;28;19954;-45
2023/05/22 11:44:29;;;;;;;;;;;25.90;63.30;;;;;;5093261;28;19912;-45
2023/05/22 11:46:54;;;;;;;;;;;25.80;63.20;;;;;;5094276;28;19908;-43
2023/05/22 11:49:22;;;;;;;;;;;25.70;63.20;;;;;;5094094;28;19919;-44
2023/05/22 11:51:48;;;;;;;;;;;25.60;63.20;;;;;;5094162;28;19912;-42
2023/05/22 11:54:16;;;;;;;;;;;25.70;63.50;;;;;;5093979;28;19955;-44
2023/05/22 11:56:42;;;;;;;;;;;25.70;63.50;;;;;;5093924;28;19909;-44
2023/05/22 11:59:07;;;;;;;;;;;25.70;63.50;;;;;;5075606;28;19908;-43
2023/05/22 12:01:35;;;;;;;;;;;25.70;63.20;;;;;;5093918;28;19914;-45
2023/05/22 12:04:00;;;;;;;;;;;25.60;63.20;;;;;;5093702;28;20014;-45
2023/05/22 12:06:26;;;;;;;;;;;25.60;63.30;;;;;;5094035;28;20364;-43
2023/05/22 12:08:51;;;;;;;;;;;25.60;63.10;;;;;;5093603;28;19973;-45
2023/05/22 12:11:17;;;;;;;;;;;25.50;63.40;;;;;;5093583;28;19908;-45
2023/05/22 12:13:43;;;;;;;;;;;25.40;63.70;;;;;;5093442;28;19925;-44
2023/05/22 12:16:20;;;;;;;;;;;25.40;63.90;;;;;;5093560;28;19912;-44
2023/05/22 12:18:45;;;;;;;;;;;25.40;64.10;;;;;;5093420;28;19908;-45
2023/05/22 12:21:11;;;;;;;;;;;25.50;64.10;;;;;;5093498;28;19912;-44
2023/05/22 12:23:46;;;;;;;;;;;25.70;64.10;;;;;;5093421;28;20390;-41
2023/05/22 12:26:11;;;;;;;;;;;25.80;64.00;;;;;;5093334;28;19947;-45
2023/05/22 12:28:37;;;;;;;;;;;25.90;64.00;;;;;;5093207;28;20387;-41
2023/05/22 12:31:03;;;;;;;;;;;25.90;63.70;;;;;;5093232;28;19968;-47
2023/05/22 12:33:29;;;;;;;;;;;25.80;63.10;;;;;;5093282;28;19908;-43
2023/05/22 12:35:57;;;;;;;;;;;25.70;63.40;;;;;;5093160;28;19909;-42
2023/05/22 12:38:26;;;;;;;;;;;25.50;63.70;;;;;;5093196;28;19935;-43
2023/05/22 12:40:52;;;;;;;;;;;25.50;63.90;;;;;;5074936;28;19969;-46
2023/05/22 12:43:17;;;;;;;;;;;25.60;63.80;;;;;;5092935;28;20333;-44
2023/05/22 12:45:43;;;;;;;;;;;25.70;63.80;;;;;;5092906;28;19908;-44
2023/05/22 12:48:08;;;;;;;;;;;25.90;63.80;;;;;;5092905;28;19947;-44
2023/05/22 12:50:34;;;;;;;;;;;26.20;63.50;;;;;;5093041;28;19915;-44
2023/05/22 12:53:03;;;;;;;;;;;26.40;63.20;;;;;;5092871;28;19912;-44
2023/05/22 12:55:28;;;;;;;;;;;26.60;63.00;;;;;;5092936;28;19916;-42
2023/05/22 12:57:54;;;;;;;;;;;26.70;62.70;;;;;;5092952;28;19916;-35
2023/05/22 13:00:19;;;;;;;;;;;26.70;62.80;;;;;;5092920;28;19927;-36
2023/05/22 13:02:45;;;;;;;;;;;26.70;62.60;;;;;;5092825;28;19904;-34
2023/05/22 13:05:11;;;;;;;;;;;26.60;62.60;;;;;;5092752;28;19960;-34
2023/05/22 13:07:36;;;;;;;;;;;26.60;62.50;;;;;;5074594;28;19915;-33
2023/05/22 13:10:05;;;;;;;;;;;26.50;62.30;;;;;;5092594;28;19908;-36
2023/05/22 13:12:31;;;;;;;;;;;26.50;62.00;;;;;;5092490;28;20371;-36
2023/05/22 13:15:00;;;;;;;;;;;26.40;62.20;;;;;;5092527;28;20042;-35
2023/05/22 13:17:25;;;;;;;;;;;26.40;62.30;;;;;;5092627;28;19916;-36
2023/05/22 13:19:51;;;;;;;;;;;26.40;62.40;;;;;;5092459;28;19908;-34
2023/05/22 13:22:17;;;;;;;;;;;26.50;62.60;;;;;;5092359;28;19916;-35
2023/05/22 13:24:43;;;;;;;;;;;26.50;62.40;;;;;;5092328;28;19929;-36
2023/05/22 13:27:10;;;;;;;;;;;26.50;61.60;;;;;;5091533;28;20405;-35
2023/05/22 13:29:36;;;;;;;;;;;26.40;62.40;;;;;;5092439;28;19947;-38
2023/05/22 13:32:01;;;;;;;;;;;26.30;62.00;;;;;;5092303;28;19908;-37
2023/05/22 13:34:27;;;;;;;;;;;26.40;62.10;;;;;;5092251;28;20338;-37
2023/05/22 13:36:53;;;;;;;;;;;26.30;62.10;;;;;;5092162;28;20014;-37
2023/05/22 13:39:18;;;;;;;;;;;26.50;62.10;;;;;;5092326;28;19952;-36
2023/05/22 13:41:44;;;;;;;;;;;26.60;61.60;;;;;;5092342;28;19908;-36
2023/05/22 13:44:09;;;;;;;;;;;26.80;61.30;;;;;;5074029;28;20284;-38
2023/05/22 13:46:35;;;;;;;;;;;26.80;60.60;;;;;;5092233;28;19935;-35
2023/05/22 13:49:00;;;;;;;;;;;26.80;59.40;;;;;;5092221;28;19957;-34
2023/05/22 13:51:26;;;;;;;;;;;26.70;58.90;;;;;;5091944;28;19915;-37
2023/05/22 13:53:51;;;;;;;;;;;26.60;59.00;;;;;;5074071;28;19909;-37
2023/05/22 13:56:17;;;;;;;;;;;26.50;58.60;;;;;;5091913;28;19908;-35
2023/05/22 13:58:42;;;;;;;;;;;26.40;58.50;;;;;;5073967;28;19909;-36
2023/05/22 14:01:08;;;;;;;;;;;26.30;58.70;;;;;;5092126;28;20329;-35
2023/05/22 14:03:33;;;;;;;;;;;26.20;58.40;;;;;;5091875;28;19912;-36
2023/05/22 14:05:59;;;;;;;;;;;26.10;58.50;;;;;;5092043;28;19912;-35
2023/05/22 14:08:24;;;;;;;;;;;25.90;58.80;;;;;;5094305;28;19908;-35
2023/05/22 14:10:50;;;;;;;;;;;25.80;58.70;;;;;;5095968;28;19912;-35